sensor_id;sensor_type;location;lat;lon;timestamp;P1;durP1;ratioP1;P2;durP2;ratioP2
82417;SDS011;72059;53.734;10.260;2023-12-22T00:02:20;20.15;;;4.15;;
82417;SDS011;72059;53.734;10.260;2023-12-22T00:04:49;24.20;;;4.30;;
82417;SDS011;72059;53.734;10.260;2023-12-22T00:07:16;17.25;;;4.97;;
82417;SDS011;72059;53.734;10.260;2023-12-22T00:09:45;23.55;;;4.00;;
82417;SDS011;72059;53.734;10.260;2023-12-22T00:12:13;29.80;;;4.25;;
82417;SDS011;72059;53.734;10.260;2023-12-22T00:14:40;19.37;;;4.05;;
82417;SDS011;72059;53.734;10.260;2023-12-22T00:17:08;17.87;;;3.83;;
82417;SDS011;72059;53.734;10.260;2023-12-22T00:19:35;24.43;;;4.00;;
82417;SDS011;72059;53.734;10.260;2023-12-22T00:22:03;15.08;;;3.50;;
82417;SDS011;72059;53.734;10.260;2023-12-22T00:24:30;20.88;;;4.53;;
82417;SDS011;72059;53.734;10.260;2023-12-22T00:26:57;19.40;;;3.67;;
82417;SDS011;72059;53.734;10.260;2023-12-22T00:29:25;19.35;;;3.87;;
82417;SDS011;72059;53.734;10.260;2023-12-22T00:31:54;25.23;;;4.20;;
82417;SDS011;72059;53.734;10.260;2023-12-22T00:34:22;18.77;;;4.03;;
82417;SDS011;72059;53.734;10.260;2023-12-22T00:36:49;15.35;;;3.70;;
82417;SDS011;72059;53.734;10.260;2023-12-22T00:39:17;7.33;;;2.12;;
82417;SDS011;72059;53.734;10.260;2023-12-22T00:41:44;10.40;;;2.42;;
82417;SDS011;72059;53.734;10.260;2023-12-22T00:44:12;11.12;;;2.77;;
82417;SDS011;72059;53.734;10.260;2023-12-22T00:46:39;5.45;;;1.85;;
82417;SDS011;72059;53.734;10.260;2023-12-22T00:49:06;9.33;;;1.80;;
82417;SDS011;72059;53.734;10.260;2023-12-22T00:51:34;10.68;;;2.50;;
82417;SDS011;72059;53.734;10.260;2023-12-22T00:54:01;9.85;;;2.20;;
82417;SDS011;72059;53.734;10.260;2023-12-22T00:56:29;7.83;;;2.27;;
82417;SDS011;72059;53.734;10.260;2023-12-22T00:58:56;23.42;;;3.30;;
82417;SDS011;72059;53.734;10.260;2023-12-22T01:01:24;13.05;;;2.87;;
82417;SDS011;72059;53.734;10.260;2023-12-22T01:03:51;15.00;;;3.12;;
82417;SDS011;72059;53.734;10.260;2023-12-22T01:06:19;20.68;;;3.72;;
82417;SDS011;72059;53.734;10.260;2023-12-22T01:08:46;16.62;;;3.60;;
82417;SDS011;72059;53.734;10.260;2023-12-22T01:11:18;18.15;;;3.08;;
82417;SDS011;72059;53.734;10.260;2023-12-22T01:13:45;13.70;;;3.10;;
82417;SDS011;72059;53.734;10.260;2023-12-22T01:16:13;17.98;;;3.90;;
82417;SDS011;72059;53.734;10.260;2023-12-22T01:18:41;20.12;;;3.37;;
82417;SDS011;72059;53.734;10.260;2023-12-22T01:21:09;14.68;;;3.33;;
82417;SDS011;72059;53.734;10.260;2023-12-22T01:23:37;25.37;;;3.60;;
82417;SDS011;72059;53.734;10.260;2023-12-22T01:26:04;22.42;;;3.58;;
82417;SDS011;72059;53.734;10.260;2023-12-22T01:28:33;19.55;;;3.75;;
82417;SDS011;72059;53.734;10.260;2023-12-22T01:31:01;18.23;;;3.62;;
82417;SDS011;72059;53.734;10.260;2023-12-22T01:33:29;20.50;;;4.45;;
82417;SDS011;72059;53.734;10.260;2023-12-22T01:35:56;15.85;;;3.87;;
82417;SDS011;72059;53.734;10.260;2023-12-22T01:38:23;16.55;;;3.85;;
82417;SDS011;72059;53.734;10.260;2023-12-22T01:40:51;12.90;;;3.72;;
82417;SDS011;72059;53.734;10.260;2023-12-22T01:43:18;16.75;;;3.90;;
82417;SDS011;72059;53.734;10.260;2023-12-22T01:45:55;18.05;;;3.37;;
82417;SDS011;72059;53.734;10.260;2023-12-22T01:48:25;21.25;;;3.90;;
82417;SDS011;72059;53.734;10.260;2023-12-22T01:50:55;14.47;;;3.67;;
82417;SDS011;72059;53.734;10.260;2023-12-22T01:53:24;19.48;;;4.28;;
82417;SDS011;72059;53.734;10.260;2023-12-22T01:55:53;24.90;;;4.28;;
82417;SDS011;72059;53.734;10.260;2023-12-22T01:58:24;26.33;;;4.28;;
82417;SDS011;72059;53.734;10.260;2023-12-22T02:00:53;18.70;;;5.00;;
82417;SDS011;72059;53.734;10.260;2023-12-22T02:03:22;16.80;;;3.50;;
82417;SDS011;72059;53.734;10.260;2023-12-22T02:05:50;22.02;;;4.35;;
82417;SDS011;72059;53.734;10.260;2023-12-22T02:08:18;14.60;;;3.40;;
82417;SDS011;72059;53.734;10.260;2023-12-22T02:10:48;15.85;;;3.40;;
82417;SDS011;72059;53.734;10.260;2023-12-22T02:13:15;15.03;;;2.77;;
82417;SDS011;72059;53.734;10.260;2023-12-22T02:15:43;20.88;;;3.67;;
82417;SDS011;72059;53.734;10.260;2023-12-22T02:18:16;18.40;;;2.92;;
82417;SDS011;72059;53.734;10.260;2023-12-22T02:20:45;17.75;;;3.00;;
82417;SDS011;72059;53.734;10.260;2023-12-22T02:23:13;10.50;;;2.70;;
82417;SDS011;72059;53.734;10.260;2023-12-22T02:25:40;9.83;;;2.37;;
82417;SDS011;72059;53.734;10.260;2023-12-22T02:28:09;9.68;;;2.17;;
82417;SDS011;72059;53.734;10.260;2023-12-22T02:33:15;12.88;;;2.50;;
82417;SDS011;72059;53.734;10.260;2023-12-22T02:35:43;10.75;;;2.12;;
82417;SDS011;72059;53.734;10.260;2023-12-22T02:38:13;9.93;;;2.52;;
82417;SDS011;72059;53.734;10.260;2023-12-22T02:40:42;11.95;;;2.35;;
82417;SDS011;72059;53.734;10.260;2023-12-22T02:43:09;13.40;;;2.42;;
82417;SDS011;72059;53.734;10.260;2023-12-22T02:45:38;6.97;;;2.10;;
82417;SDS011;72059;53.734;10.260;2023-12-22T02:48:05;7.05;;;1.62;;
82417;SDS011;72059;53.734;10.260;2023-12-22T02:50:33;6.30;;;1.47;;
82417;SDS011;72059;53.734;10.260;2023-12-22T02:53:00;8.73;;;1.87;;
82417;SDS011;72059;53.734;10.260;2023-12-22T02:55:27;10.30;;;2.05;;
82417;SDS011;72059;53.734;10.260;2023-12-22T02:57:55;6.62;;;1.30;;
82417;SDS011;72059;53.734;10.260;2023-12-22T03:00:22;7.03;;;2.05;;
82417;SDS011;72059;53.734;10.260;2023-12-22T03:02:50;7.78;;;1.60;;
82417;SDS011;72059;53.734;10.260;2023-12-22T03:05:17;5.22;;;1.22;;
82417;SDS011;72059;53.734;10.260;2023-12-22T03:07:44;9.60;;;1.32;;
82417;SDS011;72059;53.734;10.260;2023-12-22T03:10:12;5.55;;;1.90;;
82417;SDS011;72059;53.734;10.260;2023-12-22T03:12:39;7.58;;;1.17;;
82417;SDS011;72059;53.734;10.260;2023-12-22T03:15:07;6.70;;;1.57;;
82417;SDS011;72059;53.734;10.260;2023-12-22T03:17:35;6.30;;;1.17;;
82417;SDS011;72059;53.734;10.260;2023-12-22T03:20:02;6.08;;;1.10;;
82417;SDS011;72059;53.734;10.260;2023-12-22T03:22:30;9.35;;;1.45;;
82417;SDS011;72059;53.734;10.260;2023-12-22T03:24:57;8.25;;;1.32;;
82417;SDS011;72059;53.734;10.260;2023-12-22T03:27:25;7.08;;;1.57;;
82417;SDS011;72059;53.734;10.260;2023-12-22T03:29:52;3.65;;;1.17;;
82417;SDS011;72059;53.734;10.260;2023-12-22T03:32:20;4.33;;;1.40;;
82417;SDS011;72059;53.734;10.260;2023-12-22T03:34:47;6.62;;;1.35;;
82417;SDS011;72059;53.734;10.260;2023-12-22T03:37:14;7.53;;;1.65;;
82417;SDS011;72059;53.734;10.260;2023-12-22T03:39:42;8.75;;;1.35;;
82417;SDS011;72059;53.734;10.260;2023-12-22T03:42:09;6.62;;;1.40;;
82417;SDS011;72059;53.734;10.260;2023-12-22T03:44:37;5.87;;;1.05;;
82417;SDS011;72059;53.734;10.260;2023-12-22T03:47:04;7.08;;;1.60;;
82417;SDS011;72059;53.734;10.260;2023-12-22T03:49:31;3.87;;;1.12;;
82417;SDS011;72059;53.734;10.260;2023-12-22T03:51:59;13.18;;;1.57;;
82417;SDS011;72059;53.734;10.260;2023-12-22T03:54:26;6.20;;;1.47;;
82417;SDS011;72059;53.734;10.260;2023-12-22T03:56:54;12.30;;;1.92;;
82417;SDS011;72059;53.734;10.260;2023-12-22T03:59:21;9.70;;;2.65;;
82417;SDS011;72059;53.734;10.260;2023-12-22T04:01:52;14.25;;;2.10;;
82417;SDS011;72059;53.734;10.260;2023-12-22T04:06:51;11.05;;;2.00;;
82417;SDS011;72059;53.734;10.260;2023-12-22T04:09:19;16.32;;;2.58;;
82417;SDS011;72059;53.734;10.260;2023-12-22T04:11:46;14.43;;;2.12;;
82417;SDS011;72059;53.734;10.260;2023-12-22T04:14:14;12.03;;;2.30;;
82417;SDS011;72059;53.734;10.260;2023-12-22T04:16:42;18.42;;;2.65;;
82417;SDS011;72059;53.734;10.260;2023-12-22T04:19:09;12.07;;;2.47;;
82417;SDS011;72059;53.734;10.260;2023-12-22T04:21:37;11.80;;;1.57;;
82417;SDS011;72059;53.734;10.260;2023-12-22T04:24:04;8.88;;;2.17;;
82417;SDS011;72059;53.734;10.260;2023-12-22T04:26:32;9.88;;;1.82;;
82417;SDS011;72059;53.734;10.260;2023-12-22T04:28:59;5.90;;;1.37;;
82417;SDS011;72059;53.734;10.260;2023-12-22T04:31:27;8.45;;;1.62;;
82417;SDS011;72059;53.734;10.260;2023-12-22T04:33:54;14.83;;;2.00;;
82417;SDS011;72059;53.734;10.260;2023-12-22T04:36:22;11.88;;;2.52;;
82417;SDS011;72059;53.734;10.260;2023-12-22T04:38:49;14.98;;;2.52;;
82417;SDS011;72059;53.734;10.260;2023-12-22T04:41:17;13.22;;;2.37;;
82417;SDS011;72059;53.734;10.260;2023-12-22T04:43:44;10.55;;;3.02;;
82417;SDS011;72059;53.734;10.260;2023-12-22T04:46:12;18.15;;;2.22;;
82417;SDS011;72059;53.734;10.260;2023-12-22T04:48:39;8.60;;;2.30;;
82417;SDS011;72059;53.734;10.260;2023-12-22T04:51:06;17.45;;;3.15;;
82417;SDS011;72059;53.734;10.260;2023-12-22T04:53:34;12.35;;;2.60;;
82417;SDS011;72059;53.734;10.260;2023-12-22T04:56:01;17.12;;;2.87;;
82417;SDS011;72059;53.734;10.260;2023-12-22T04:58:29;11.55;;;2.37;;
82417;SDS011;72059;53.734;10.260;2023-12-22T05:00:56;12.30;;;2.37;;
82417;SDS011;72059;53.734;10.260;2023-12-22T05:03:24;16.35;;;2.77;;
82417;SDS011;72059;53.734;10.260;2023-12-22T05:05:52;12.58;;;2.58;;
82417;SDS011;72059;53.734;10.260;2023-12-22T05:08:19;13.20;;;2.22;;
82417;SDS011;72059;53.734;10.260;2023-12-22T05:10:47;16.15;;;2.22;;
82417;SDS011;72059;53.734;10.260;2023-12-22T05:13:14;12.95;;;2.45;;
82417;SDS011;72059;53.734;10.260;2023-12-22T05:15:41;18.05;;;3.12;;
82417;SDS011;72059;53.734;10.260;2023-12-22T05:18:09;14.00;;;2.92;;
82417;SDS011;72059;53.734;10.260;2023-12-22T05:20:36;14.65;;;3.25;;
82417;SDS011;72059;53.734;10.260;2023-12-22T05:23:04;13.43;;;2.47;;
82417;SDS011;72059;53.734;10.260;2023-12-22T05:25:31;16.93;;;2.52;;
82417;SDS011;72059;53.734;10.260;2023-12-22T05:27:58;16.62;;;2.70;;
82417;SDS011;72059;53.734;10.260;2023-12-22T05:30:26;11.93;;;2.65;;
82417;SDS011;72059;53.734;10.260;2023-12-22T05:32:53;17.92;;;2.52;;
82417;SDS011;72059;53.734;10.260;2023-12-22T05:35:21;17.92;;;3.27;;
82417;SDS011;72059;53.734;10.260;2023-12-22T05:37:48;17.45;;;2.47;;
82417;SDS011;72059;53.734;10.260;2023-12-22T05:40:16;7.97;;;2.00;;
82417;SDS011;72059;53.734;10.260;2023-12-22T05:42:43;12.03;;;2.42;;
82417;SDS011;72059;53.734;10.260;2023-12-22T05:45:10;14.85;;;2.80;;
82417;SDS011;72059;53.734;10.260;2023-12-22T05:47:39;10.50;;;2.17;;
82417;SDS011;72059;53.734;10.260;2023-12-22T05:50:07;12.43;;;2.27;;
82417;SDS011;72059;53.734;10.260;2023-12-22T05:52:36;8.85;;;1.85;;
82417;SDS011;72059;53.734;10.260;2023-12-22T05:55:03;9.30;;;2.52;;
82417;SDS011;72059;53.734;10.260;2023-12-22T05:57:31;14.53;;;2.10;;
82417;SDS011;72059;53.734;10.260;2023-12-22T05:59:59;12.73;;;2.22;;
82417;SDS011;72059;53.734;10.260;2023-12-22T06:02:26;18.02;;;2.85;;
82417;SDS011;72059;53.734;10.260;2023-12-22T06:04:53;9.15;;;1.90;;
82417;SDS011;72059;53.734;10.260;2023-12-22T06:07:21;15.48;;;2.37;;
82417;SDS011;72059;53.734;10.260;2023-12-22T06:09:49;13.65;;;2.90;;
82417;SDS011;72059;53.734;10.260;2023-12-22T06:12:17;19.27;;;3.52;;
82417;SDS011;72059;53.734;10.260;2023-12-22T06:14:44;14.23;;;2.77;;
82417;SDS011;72059;53.734;10.260;2023-12-22T06:17:11;17.30;;;3.45;;
82417;SDS011;72059;53.734;10.260;2023-12-22T06:19:39;13.40;;;2.58;;
82417;SDS011;72059;53.734;10.260;2023-12-22T06:22:06;15.95;;;2.85;;
82417;SDS011;72059;53.734;10.260;2023-12-22T06:24:36;20.35;;;2.70;;
82417;SDS011;72059;53.734;10.260;2023-12-22T06:27:04;17.23;;;2.75;;
82417;SDS011;72059;53.734;10.260;2023-12-22T06:29:33;11.08;;;2.90;;
82417;SDS011;72059;53.734;10.260;2023-12-22T06:32:01;11.78;;;2.35;;
82417;SDS011;72059;53.734;10.260;2023-12-22T06:34:30;14.10;;;2.40;;
82417;SDS011;72059;53.734;10.260;2023-12-22T06:36:57;13.40;;;2.20;;
82417;SDS011;72059;53.734;10.260;2023-12-22T06:39:25;6.87;;;2.22;;
82417;SDS011;72059;53.734;10.260;2023-12-22T06:41:52;8.20;;;2.15;;
82417;SDS011;72059;53.734;10.260;2023-12-22T06:44:19;14.70;;;2.70;;
82417;SDS011;72059;53.734;10.260;2023-12-22T06:46:47;10.85;;;2.10;;
82417;SDS011;72059;53.734;10.260;2023-12-22T06:49:14;11.10;;;2.72;;
82417;SDS011;72059;53.734;10.260;2023-12-22T06:51:42;13.35;;;3.00;;
82417;SDS011;72059;53.734;10.260;2023-12-22T06:54:09;13.90;;;3.02;;
82417;SDS011;72059;53.734;10.260;2023-12-22T06:56:36;17.25;;;3.22;;
82417;SDS011;72059;53.734;10.260;2023-12-22T06:59:05;14.03;;;3.00;;
82417;SDS011;72059;53.734;10.260;2023-12-22T07:01:33;13.68;;;2.55;;
82417;SDS011;72059;53.734;10.260;2023-12-22T07:04:02;15.08;;;3.05;;
82417;SDS011;72059;53.734;10.260;2023-12-22T07:06:32;12.98;;;2.62;;
82417;SDS011;72059;53.734;10.260;2023-12-22T07:11:50;16.90;;;3.35;;
82417;SDS011;72059;53.734;10.260;2023-12-22T07:14:21;14.70;;;3.10;;
82417;SDS011;72059;53.734;10.260;2023-12-22T07:16:48;16.95;;;3.90;;
82417;SDS011;72059;53.734;10.260;2023-12-22T07:19:16;13.60;;;3.95;;
82417;SDS011;72059;53.734;10.260;2023-12-22T07:21:43;18.05;;;3.37;;
82417;SDS011;72059;53.734;10.260;2023-12-22T07:24:11;14.30;;;3.30;;
82417;SDS011;72059;53.734;10.260;2023-12-22T07:26:38;15.10;;;2.92;;
82417;SDS011;72059;53.734;10.260;2023-12-22T07:29:06;19.50;;;3.65;;
82417;SDS011;72059;53.734;10.260;2023-12-22T07:31:33;20.35;;;3.58;;
82417;SDS011;72059;53.734;10.260;2023-12-22T07:34:01;15.60;;;2.92;;
82417;SDS011;72059;53.734;10.260;2023-12-22T07:36:28;13.28;;;2.52;;
82417;SDS011;72059;53.734;10.260;2023-12-22T07:38:56;12.82;;;2.60;;
82417;SDS011;72059;53.734;10.260;2023-12-22T07:41:24;16.10;;;3.40;;
82417;SDS011;72059;53.734;10.260;2023-12-22T07:43:52;21.95;;;3.10;;
82417;SDS011;72059;53.734;10.260;2023-12-22T07:46:20;16.50;;;3.08;;
82417;SDS011;72059;53.734;10.260;2023-12-22T07:48:48;17.23;;;2.90;;
82417;SDS011;72059;53.734;10.260;2023-12-22T07:51:16;15.83;;;3.10;;
82417;SDS011;72059;53.734;10.260;2023-12-22T07:53:43;13.35;;;3.10;;
82417;SDS011;72059;53.734;10.260;2023-12-22T07:56:11;17.80;;;3.08;;
82417;SDS011;72059;53.734;10.260;2023-12-22T07:58:38;9.55;;;2.15;;
82417;SDS011;72059;53.734;10.260;2023-12-22T08:01:06;12.47;;;2.90;;
82417;SDS011;72059;53.734;10.260;2023-12-22T08:03:33;17.95;;;2.85;;
82417;SDS011;72059;53.734;10.260;2023-12-22T08:06:00;12.98;;;2.60;;
82417;SDS011;72059;53.734;10.260;2023-12-22T08:08:28;15.23;;;2.77;;
82417;SDS011;72059;53.734;10.260;2023-12-22T08:10:58;15.90;;;3.50;;
82417;SDS011;72059;53.734;10.260;2023-12-22T08:13:26;13.72;;;3.10;;
82417;SDS011;72059;53.734;10.260;2023-12-22T08:15:53;16.80;;;3.47;;
82417;SDS011;72059;53.734;10.260;2023-12-22T08:18:21;27.17;;;3.90;;
82417;SDS011;72059;53.734;10.260;2023-12-22T08:20:48;15.20;;;3.67;;
82417;SDS011;72059;53.734;10.260;2023-12-22T08:23:15;23.22;;;3.40;;
82417;SDS011;72059;53.734;10.260;2023-12-22T08:25:43;25.25;;;4.08;;
82417;SDS011;72059;53.734;10.260;2023-12-22T08:28:10;19.73;;;3.67;;
82417;SDS011;72059;53.734;10.260;2023-12-22T08:30:38;14.60;;;3.20;;
82417;SDS011;72059;53.734;10.260;2023-12-22T08:33:05;14.50;;;3.80;;
82417;SDS011;72059;53.734;10.260;2023-12-22T08:35:32;15.05;;;3.25;;
82417;SDS011;72059;53.734;10.260;2023-12-22T08:38:00;22.77;;;3.85;;
82417;SDS011;72059;53.734;10.260;2023-12-22T08:40:27;20.55;;;3.65;;
82417;SDS011;72059;53.734;10.260;2023-12-22T08:42:55;18.80;;;3.67;;
82417;SDS011;72059;53.734;10.260;2023-12-22T08:45:26;16.23;;;3.52;;
82417;SDS011;72059;53.734;10.260;2023-12-22T08:47:54;22.98;;;3.47;;
82417;SDS011;72059;53.734;10.260;2023-12-22T08:50:22;13.35;;;2.65;;
82417;SDS011;72059;53.734;10.260;2023-12-22T08:52:50;12.65;;;3.22;;
82417;SDS011;72059;53.734;10.260;2023-12-22T08:55:17;17.12;;;3.58;;
82417;SDS011;72059;53.734;10.260;2023-12-22T08:57:44;21.45;;;3.08;;
82417;SDS011;72059;53.734;10.260;2023-12-22T09:00:12;13.93;;;4.15;;
82417;SDS011;72059;53.734;10.260;2023-12-22T09:02:40;21.50;;;3.92;;
82417;SDS011;72059;53.734;10.260;2023-12-22T09:05:08;13.93;;;3.47;;
82417;SDS011;72059;53.734;10.260;2023-12-22T09:07:35;17.17;;;3.40;;
82417;SDS011;72059;53.734;10.260;2023-12-22T09:10:03;19.00;;;3.50;;
82417;SDS011;72059;53.734;10.260;2023-12-22T09:12:30;8.68;;;2.90;;
82417;SDS011;72059;53.734;10.260;2023-12-22T09:14:58;13.72;;;3.47;;
82417;SDS011;72059;53.734;10.260;2023-12-22T09:17:26;12.18;;;3.27;;
82417;SDS011;72059;53.734;10.260;2023-12-22T09:19:54;18.35;;;4.20;;
82417;SDS011;72059;53.734;10.260;2023-12-22T09:22:21;15.38;;;2.92;;
82417;SDS011;72059;53.734;10.260;2023-12-22T09:24:48;14.85;;;3.22;;
82417;SDS011;72059;53.734;10.260;2023-12-22T09:27:16;15.50;;;3.00;;
82417;SDS011;72059;53.734;10.260;2023-12-22T09:29:43;19.40;;;3.35;;
82417;SDS011;72059;53.734;10.260;2023-12-22T09:32:11;11.30;;;2.45;;
82417;SDS011;72059;53.734;10.260;2023-12-22T09:34:38;12.63;;;2.50;;
82417;SDS011;72059;53.734;10.260;2023-12-22T09:37:06;13.83;;;3.00;;
82417;SDS011;72059;53.734;10.260;2023-12-22T09:39:33;18.82;;;3.50;;
82417;SDS011;72059;53.734;10.260;2023-12-22T09:42:01;11.12;;;2.87;;
82417;SDS011;72059;53.734;10.260;2023-12-22T09:44:29;22.00;;;3.20;;
82417;SDS011;72059;53.734;10.260;2023-12-22T09:47:00;14.15;;;3.15;;
82417;SDS011;72059;53.734;10.260;2023-12-22T09:49:32;16.48;;;2.67;;
82417;SDS011;72059;53.734;10.260;2023-12-22T09:52:01;18.75;;;2.75;;
82417;SDS011;72059;53.734;10.260;2023-12-22T09:54:30;12.18;;;2.33;;
82417;SDS011;72059;53.734;10.260;2023-12-22T09:57:03;21.17;;;3.10;;
82417;SDS011;72059;53.734;10.260;2023-12-22T09:59:28;15.03;;;2.30;;
82417;SDS011;72059;53.734;10.260;2023-12-22T10:01:56;16.02;;;2.27;;
82417;SDS011;72059;53.734;10.260;2023-12-22T10:04:26;16.42;;;2.58;;
82417;SDS011;72059;53.734;10.260;2023-12-22T10:06:53;11.60;;;2.20;;
82417;SDS011;72059;53.734;10.260;2023-12-22T10:09:26;19.02;;;3.58;;
82417;SDS011;72059;53.734;10.260;2023-12-22T10:11:54;14.23;;;2.98;;
82417;SDS011;72059;53.734;10.260;2023-12-22T10:14:23;12.68;;;2.87;;
82417;SDS011;72059;53.734;10.260;2023-12-22T10:16:53;15.93;;;2.75;;
82417;SDS011;72059;53.734;10.260;2023-12-22T10:19:21;13.88;;;2.98;;
82417;SDS011;72059;53.734;10.260;2023-12-22T10:21:49;12.18;;;2.50;;
82417;SDS011;72059;53.734;10.260;2023-12-22T10:24:59;16.37;;;2.90;;
82417;SDS011;72059;53.734;10.260;2023-12-22T10:27:07;13.33;;;2.80;;
82417;SDS011;72059;53.734;10.260;2023-12-22T10:29:35;19.05;;;3.05;;
82417;SDS011;72059;53.734;10.260;2023-12-22T10:32:03;13.53;;;3.30;;
82417;SDS011;72059;53.734;10.260;2023-12-22T10:34:31;12.82;;;2.67;;
82417;SDS011;72059;53.734;10.260;2023-12-22T10:36:59;15.83;;;3.75;;
82417;SDS011;72059;53.734;10.260;2023-12-22T10:39:32;7.12;;;2.20;;
82417;SDS011;72059;53.734;10.260;2023-12-22T10:41:56;14.05;;;2.45;;
82417;SDS011;72059;53.734;10.260;2023-12-22T10:44:25;18.05;;;3.02;;
82417;SDS011;72059;53.734;10.260;2023-12-22T10:46:54;16.65;;;3.12;;
82417;SDS011;72059;53.734;10.260;2023-12-22T10:49:22;16.07;;;3.33;;
82417;SDS011;72059;53.734;10.260;2023-12-22T10:51:50;14.43;;;2.85;;
82417;SDS011;72059;53.734;10.260;2023-12-22T10:54:18;12.70;;;2.60;;
82417;SDS011;72059;53.734;10.260;2023-12-22T10:56:46;12.78;;;2.58;;
82417;SDS011;72059;53.734;10.260;2023-12-22T10:59:16;14.75;;;2.60;;
82417;SDS011;72059;53.734;10.260;2023-12-22T11:01:43;12.15;;;3.17;;
82417;SDS011;72059;53.734;10.260;2023-12-22T11:04:13;16.93;;;2.15;;
82417;SDS011;72059;53.734;10.260;2023-12-22T11:06:42;13.43;;;2.30;;
82417;SDS011;72059;53.734;10.260;2023-12-22T11:09:11;14.10;;;2.85;;
82417;SDS011;72059;53.734;10.260;2023-12-22T11:11:42;12.90;;;2.02;;
82417;SDS011;72059;53.734;10.260;2023-12-22T11:14:11;10.32;;;2.55;;
82417;SDS011;72059;53.734;10.260;2023-12-22T11:16:40;9.48;;;2.45;;
82417;SDS011;72059;53.734;10.260;2023-12-22T11:19:10;8.18;;;1.77;;
82417;SDS011;72059;53.734;10.260;2023-12-22T11:21:38;9.38;;;2.02;;
82417;SDS011;72059;53.734;10.260;2023-12-22T11:24:07;9.25;;;1.92;;
82417;SDS011;72059;53.734;10.260;2023-12-22T11:26:36;9.60;;;2.05;;
82417;SDS011;72059;53.734;10.260;2023-12-22T11:29:08;10.75;;;2.20;;
82417;SDS011;72059;53.734;10.260;2023-12-22T11:31:37;9.40;;;2.35;;
82417;SDS011;72059;53.734;10.260;2023-12-22T11:34:06;3.90;;;1.80;;
82417;SDS011;72059;53.734;10.260;2023-12-22T11:36:35;13.38;;;2.90;;
82417;SDS011;72059;53.734;10.260;2023-12-22T11:39:04;9.15;;;1.70;;
82417;SDS011;72059;53.734;10.260;2023-12-22T11:41:32;11.22;;;1.95;;
82417;SDS011;72059;53.734;10.260;2023-12-22T11:44:03;12.75;;;2.05;;
82417;SDS011;72059;53.734;10.260;2023-12-22T11:46:32;9.28;;;2.08;;
82417;SDS011;72059;53.734;10.260;2023-12-22T11:49:00;6.50;;;1.30;;
82417;SDS011;72059;53.734;10.260;2023-12-22T11:51:31;13.10;;;1.87;;
82417;SDS011;72059;53.734;10.260;2023-12-22T11:54:02;8.10;;;1.77;;
82417;SDS011;72059;53.734;10.260;2023-12-22T11:56:29;7.90;;;2.10;;
82417;SDS011;72059;53.734;10.260;2023-12-22T11:58:57;12.80;;;2.15;;
82417;SDS011;72059;53.734;10.260;2023-12-22T12:01:26;11.90;;;2.58;;
82417;SDS011;72059;53.734;10.260;2023-12-22T12:03:56;11.10;;;2.37;;
82417;SDS011;72059;53.734;10.260;2023-12-22T12:08:56;10.35;;;1.70;;
82417;SDS011;72059;53.734;10.260;2023-12-22T12:14:12;14.18;;;2.35;;
82417;SDS011;72059;53.734;10.260;2023-12-22T12:16:40;9.38;;;2.85;;
82417;SDS011;72059;53.734;10.260;2023-12-22T12:19:09;12.53;;;2.27;;
82417;SDS011;72059;53.734;10.260;2023-12-22T12:21:37;8.60;;;1.65;;
82417;SDS011;72059;53.734;10.260;2023-12-22T12:24:06;11.73;;;2.20;;
82417;SDS011;72059;53.734;10.260;2023-12-22T12:26:34;5.75;;;1.50;;
82417;SDS011;72059;53.734;10.260;2023-12-22T12:29:02;8.88;;;1.72;;
82417;SDS011;72059;53.734;10.260;2023-12-22T12:31:39;13.78;;;2.10;;
82417;SDS011;72059;53.734;10.260;2023-12-22T12:34:04;14.13;;;2.45;;
82417;SDS011;72059;53.734;10.260;2023-12-22T12:36:33;16.73;;;2.37;;
82417;SDS011;72059;53.734;10.260;2023-12-22T12:39:04;11.05;;;3.00;;
82417;SDS011;72059;53.734;10.260;2023-12-22T12:41:40;8.83;;;1.95;;
82417;SDS011;72059;53.734;10.260;2023-12-22T12:44:12;9.53;;;2.33;;
82417;SDS011;72059;53.734;10.260;2023-12-22T12:46:40;10.03;;;1.77;;
82417;SDS011;72059;53.734;10.260;2023-12-22T12:49:10;6.12;;;1.80;;
82417;SDS011;72059;53.734;10.260;2023-12-22T12:51:43;9.98;;;1.50;;
82417;SDS011;72059;53.734;10.260;2023-12-22T12:54:12;13.15;;;2.45;;
82417;SDS011;72059;53.734;10.260;2023-12-22T12:56:41;7.75;;;2.17;;
82417;SDS011;72059;53.734;10.260;2023-12-22T12:59:13;4.75;;;1.42;;
82417;SDS011;72059;53.734;10.260;2023-12-22T13:01:45;6.70;;;1.62;;
82417;SDS011;72059;53.734;10.260;2023-12-22T13:04:14;8.88;;;1.60;;
82417;SDS011;72059;53.734;10.260;2023-12-22T13:06:45;15.35;;;2.37;;
82417;SDS011;72059;53.734;10.260;2023-12-22T13:09:13;9.98;;;1.87;;
82417;SDS011;72059;53.734;10.260;2023-12-22T13:11:44;12.68;;;2.12;;
82417;SDS011;72059;53.734;10.260;2023-12-22T13:14:21;6.22;;;1.57;;
82417;SDS011;72059;53.734;10.260;2023-12-22T13:16:53;7.60;;;2.10;;
82417;SDS011;72059;53.734;10.260;2023-12-22T13:19:23;7.83;;;2.17;;
82417;SDS011;72059;53.734;10.260;2023-12-22T13:21:51;9.55;;;1.90;;
82417;SDS011;72059;53.734;10.260;2023-12-22T13:24:21;5.12;;;1.30;;
82417;SDS011;72059;53.734;10.260;2023-12-22T13:27:03;7.85;;;1.60;;
82417;SDS011;72059;53.734;10.260;2023-12-22T13:29:44;8.25;;;1.55;;
82417;SDS011;72059;53.734;10.260;2023-12-22T13:32:17;10.50;;;1.42;;
82417;SDS011;72059;53.734;10.260;2023-12-22T13:37:14;8.48;;;2.00;;
82417;SDS011;72059;53.734;10.260;2023-12-22T13:39:41;7.95;;;1.75;;
82417;SDS011;72059;53.734;10.260;2023-12-22T13:42:19;5.35;;;1.57;;
82417;SDS011;72059;53.734;10.260;2023-12-22T13:44:45;8.80;;;2.37;;
82417;SDS011;72059;53.734;10.260;2023-12-22T13:47:19;5.37;;;1.65;;
82417;SDS011;72059;53.734;10.260;2023-12-22T13:49:44;6.97;;;1.90;;
82417;SDS011;72059;53.734;10.260;2023-12-22T13:52:30;10.08;;;2.22;;
82417;SDS011;72059;53.734;10.260;2023-12-22T13:55:00;9.88;;;2.00;;
82417;SDS011;72059;53.734;10.260;2023-12-22T13:57:28;6.30;;;1.67;;
82417;SDS011;72059;53.734;10.260;2023-12-22T13:59:55;7.97;;;2.00;;
82417;SDS011;72059;53.734;10.260;2023-12-22T14:02:23;8.08;;;1.98;;
82417;SDS011;72059;53.734;10.260;2023-12-22T14:04:50;12.90;;;2.77;;
82417;SDS011;72059;53.734;10.260;2023-12-22T14:07:18;11.08;;;2.60;;
82417;SDS011;72059;53.734;10.260;2023-12-22T14:09:45;11.20;;;2.55;;
82417;SDS011;72059;53.734;10.260;2023-12-22T14:12:13;13.50;;;2.45;;
82417;SDS011;72059;53.734;10.260;2023-12-22T14:14:41;10.70;;;2.22;;
82417;SDS011;72059;53.734;10.260;2023-12-22T14:17:10;15.43;;;2.22;;
82417;SDS011;72059;53.734;10.260;2023-12-22T14:19:38;9.25;;;1.65;;
82417;SDS011;72059;53.734;10.260;2023-12-22T14:22:05;12.03;;;2.47;;
82417;SDS011;72059;53.734;10.260;2023-12-22T14:24:34;12.78;;;2.33;;
82417;SDS011;72059;53.734;10.260;2023-12-22T14:27:01;12.85;;;2.52;;
82417;SDS011;72059;53.734;10.260;2023-12-22T14:29:29;14.73;;;2.80;;
82417;SDS011;72059;53.734;10.260;2023-12-22T14:31:56;14.15;;;2.95;;
82417;SDS011;72059;53.734;10.260;2023-12-22T14:34:24;9.88;;;3.00;;
82417;SDS011;72059;53.734;10.260;2023-12-22T14:36:51;11.68;;;2.62;;
82417;SDS011;72059;53.734;10.260;2023-12-22T14:39:18;8.75;;;1.47;;
82417;SDS011;72059;53.734;10.260;2023-12-22T14:41:46;13.08;;;2.40;;
82417;SDS011;72059;53.734;10.260;2023-12-22T14:44:13;10.23;;;2.35;;
82417;SDS011;72059;53.734;10.260;2023-12-22T14:46:41;5.35;;;1.60;;
82417;SDS011;72059;53.734;10.260;2023-12-22T14:49:08;12.73;;;1.92;;